Time,TemperatureF,DewpointF,PressureIn,WindDirection,WindDirectionDegrees,WindSpeedMPH,WindSpeedGustMPH,Humidity,HourlyPrecipIn,Conditions,Clouds,dailyrainin,SolarRadiationWatts/m^2,SoftwareType,DateUTC
2013-10-15 00:04:00,59.0,47.0,-100.00,SE,132,1.0,4.0,65,0.00,,,0.00,0.000000,,2013-10-15 04:04:00,
2013-10-15 01:53:00,58.0,46.0,-100.00,ESE,118,2.0,6.0,65,-99.99,,,0.00,0.000000,,2013-10-15 05:53:00,
2013-10-15 02:02:00,58.0,46.0,-100.00,ESE,118,2.0,6.0,65,-99.99,,,0.00,0.000000,,2013-10-15 06:02:00,
2013-10-15 02:43:00,57.0,48.0,-100.00,ESE,123,2.0,7.0,71,-99.99,,,0.00,0.000000,,2013-10-15 06:43:00,
2013-10-15 02:52:00,57.0,48.0,-100.00,ESE,123,2.0,7.0,71,-99.99,,,0.00,0.000000,,2013-10-15 06:52:00,
2013-10-15 03:02:00,57.0,48.0,-100.00,ESE,123,2.0,7.0,71,-99.99,,,0.00,0.000000,,2013-10-15 07:02:00,
2013-10-15 03:42:00,55.0,50.0,-100.00,East,101,1.0,6.0,83,0.00,,,0.00,0.000000,,2013-10-15 07:42:00,
2013-10-15 03:53:00,55.0,50.0,-100.00,East,101,1.0,6.0,83,0.00,,,0.00,0.000000,,2013-10-15 07:53:00,
2013-10-15 04:02:00,55.0,50.0,-100.00,East,101,1.0,6.0,83,0.00,,,0.00,0.000000,,2013-10-15 08:02:00,
2013-10-15 04:42:00,54.0,51.0,-100.00,ESE,102,0.0,3.0,90,0.00,,,0.00,0.000000,,2013-10-15 08:42:00,
2013-10-15 04:52:00,54.0,51.0,-100.00,ESE,102,0.0,3.0,90,0.00,,,0.00,0.000000,,2013-10-15 08:52:00,
2013-10-15 05:02:00,54.0,51.0,-100.00,ESE,102,0.0,3.0,90,0.00,,,0.00,0.000000,,2013-10-15 09:02:00,
2013-10-15 05:43:00,55.0,53.0,-100.00,ENE,69,0.0,8.0,93,0.00,,,0.00,0.000000,,2013-10-15 09:43:00,
2013-10-15 05:53:00,55.0,53.0,-100.00,ENE,69,0.0,8.0,93,0.00,,,0.00,0.000000,,2013-10-15 09:53:00,
2013-10-15 06:03:00,55.0,53.0,-100.00,ENE,69,0.0,8.0,93,0.00,,,0.00,0.000000,,2013-10-15 10:03:00,
2013-10-15 06:43:00,58.0,57.0,-100.00,SSW,202,0.0,5.0,97,0.00,,,0.00,0.000000,,2013-10-15 10:43:00,
2013-10-15 06:53:00,58.0,57.0,-100.00,SSW,202,0.0,5.0,97,0.00,,,0.00,0.000000,,2013-10-15 10:53:00,
2013-10-15 07:02:00,58.0,57.0,-100.00,SSW,202,0.0,5.0,97,0.00,,,0.00,0.000000,,2013-10-15 11:02:00,
2013-10-15 07:42:00,56.0,55.0,-100.00,ESE,102,0.0,3.0,97,0.00,,,0.00,0.000000,,2013-10-15 11:42:00,
2013-10-15 07:53:00,56.0,55.0,-100.00,ESE,102,0.0,3.0,97,0.00,,,0.00,0.000000,,2013-10-15 11:53:00,
2013-10-15 08:01:00,56.0,55.0,-100.00,ESE,102,0.0,3.0,97,0.00,,,0.00,0.000000,,2013-10-15 12:01:00,
2013-10-15 08:42:00,57.0,56.0,-100.00,ESE,105,0.0,6.0,97,0.00,,,0.00,1.000000,,2013-10-15 12:42:00,
2013-10-15 08:52:00,57.0,56.0,-100.00,ESE,105,0.0,6.0,97,0.00,,,0.00,1.000000,,2013-10-15 12:52:00,
2013-10-15 09:02:00,57.0,56.0,-100.00,ESE,105,0.0,6.0,97,0.00,,,0.00,1.000000,,2013-10-15 13:02:00,
2013-10-15 09:42:00,60.0,60.0,-100.00,West,269,1.0,4.0,99,0.00,,,0.00,46.000000,,2013-10-15 13:42:00,
2013-10-15 09:52:00,60.0,60.0,-100.00,West,269,1.0,4.0,99,0.00,,,0.00,46.000000,,2013-10-15 13:52:00,
2013-10-15 10:02:00,60.0,60.0,-100.00,West,269,1.0,4.0,99,0.00,,,0.00,46.000000,,2013-10-15 14:02:00,
2013-10-15 10:42:00,63.0,60.0,-100.00,WSW,255,1.0,7.0,91,0.00,,,0.00,111.000000,,2013-10-15 14:42:00,
2013-10-15 10:52:00,63.0,60.0,-100.00,WSW,255,1.0,7.0,91,0.00,,,0.00,111.000000,,2013-10-15 14:52:00,
2013-10-15 11:01:00,63.0,60.0,-100.00,WSW,255,1.0,7.0,91,0.00,,,0.00,111.000000,,2013-10-15 15:01:00,
2013-10-15 11:44:00,66.0,61.0,-100.00,WSW,245,1.0,8.0,83,0.00,,,0.00,187.000000,,2013-10-15 15:44:00,
2013-10-15 11:53:00,66.0,61.0,-100.00,WSW,245,1.0,8.0,83,0.00,,,0.00,187.000000,,2013-10-15 15:53:00,
2013-10-15 12:03:00,66.0,61.0,-100.00,WSW,245,1.0,8.0,83,0.00,,,0.00,187.000000,,2013-10-15 16:03:00,
2013-10-15 12:43:00,69.0,61.0,-100.00,West,261,3.0,9.0,76,0.00,,,0.00,258.000000,,2013-10-15 16:43:00,
2013-10-15 12:53:00,69.0,61.0,-100.00,West,261,3.0,9.0,76,0.00,,,0.00,258.000000,,2013-10-15 16:53:00,
2013-10-15 13:02:00,69.0,61.0,-100.00,West,261,3.0,9.0,76,0.00,,,0.00,258.000000,,2013-10-15 17:02:00,
2013-10-15 13:42:00,69.0,60.0,-100.00,WSW,258,4.0,14.0,74,0.00,,,0.00,276.000000,,2013-10-15 17:42:00,
2013-10-15 13:53:00,69.0,60.0,-100.00,WSW,258,4.0,14.0,74,0.00,,,0.00,276.000000,,2013-10-15 17:53:00,
2013-10-15 14:02:00,69.0,60.0,-100.00,WSW,258,4.0,14.0,74,0.00,,,0.00,276.000000,,2013-10-15 18:02:00,
2013-10-15 14:42:00,68.0,62.0,-100.00,WSW,246,2.0,9.0,80,0.00,,,0.00,183.000000,,2013-10-15 18:42:00,
2013-10-15 14:52:00,68.0,62.0,-100.00,WSW,246,2.0,9.0,80,0.00,,,0.00,183.000000,,2013-10-15 18:52:00,
2013-10-15 15:01:00,68.0,62.0,-100.00,WSW,246,2.0,9.0,80,0.00,,,0.00,183.000000,,2013-10-15 19:01:00,
2013-10-15 15:42:00,65.0,63.0,-100.00,West,272,2.0,7.0,94,0.01,,,0.01,102.000000,,2013-10-15 19:42:00,
2013-10-15 15:52:00,65.0,63.0,-100.00,West,272,2.0,7.0,94,0.01,,,0.01,102.000000,,2013-10-15 19:52:00,
2013-10-15 16:03:00,65.0,63.0,-100.00,West,272,2.0,7.0,94,0.01,,,0.01,102.000000,,2013-10-15 20:03:00,
2013-10-15 16:42:00,65.0,64.0,-100.00,WSW,238,1.0,5.0,97,0.03,,,0.04,89.000000,,2013-10-15 20:42:00,
2013-10-15 16:52:00,65.0,64.0,-100.00,WSW,238,1.0,5.0,97,0.03,,,0.04,89.000000,,2013-10-15 20:52:00,
2013-10-15 17:02:00,65.0,64.0,-100.00,WSW,238,1.0,5.0,97,0.03,,,0.04,89.000000,,2013-10-15 21:02:00,
2013-10-15 17:44:00,65.0,64.0,-100.00,SW,216,1.0,6.0,96,0.01,,,0.05,91.000000,,2013-10-15 21:44:00,
2013-10-15 17:54:00,65.0,64.0,-100.00,SW,216,1.0,6.0,96,0.01,,,0.05,91.000000,,2013-10-15 21:54:00,
2013-10-15 18:04:00,65.0,64.0,-100.00,SW,216,1.0,6.0,96,0.01,,,0.05,91.000000,,2013-10-15 22:04:00,
2013-10-15 18:43:00,64.0,63.0,-100.00,WNW,283,1.0,8.0,97,0.00,,,0.05,42.000000,,2013-10-15 22:43:00,
2013-10-15 18:53:00,64.0,63.0,-100.00,WNW,283,1.0,8.0,97,0.00,,,0.05,42.000000,,2013-10-15 22:53:00,
2013-10-15 19:03:00,64.0,63.0,-100.00,WNW,283,1.0,8.0,97,0.00,,,0.05,42.000000,,2013-10-15 23:03:00,
2013-10-15 19:43:00,63.0,63.0,-100.00,SW,227,0.0,4.0,99,0.01,,,0.06,10.000000,,2013-10-15 23:43:00,
2013-10-15 19:52:00,63.0,63.0,-100.00,SW,227,0.0,4.0,99,0.01,,,0.06,10.000000,,2013-10-15 23:52:00,
2013-10-15 20:01:00,63.0,63.0,-100.00,SW,227,0.0,4.0,99,0.01,,,0.06,10.000000,,2013-10-16 00:01:00,
2013-10-15 20:42:00,63.0,63.0,-100.00,WSW,245,1.0,5.0,99,0.00,,,0.06,0.000000,,2013-10-16 00:42:00,
2013-10-15 20:52:00,63.0,63.0,-100.00,WSW,245,1.0,5.0,99,0.00,,,0.06,0.000000,,2013-10-16 00:52:00,
2013-10-15 21:02:00,63.0,63.0,-100.00,WSW,245,1.0,5.0,99,0.00,,,0.06,0.000000,,2013-10-16 01:02:00,
2013-10-15 21:42:00,63.0,63.0,-100.00,West,272,1.0,6.0,99,0.00,,,0.06,0.000000,,2013-10-16 01:42:00,
2013-10-15 21:52:00,63.0,63.0,-100.00,West,272,1.0,6.0,99,0.00,,,0.06,0.000000,,2013-10-16 01:52:00,
2013-10-15 22:02:00,63.0,63.0,-100.00,West,272,1.0,6.0,99,0.00,,,0.06,0.000000,,2013-10-16 02:02:00,
2013-10-15 22:42:00,63.0,62.0,-100.00,West,262,2.0,8.0,98,0.00,,,0.06,0.000000,,2013-10-16 02:42:00,
2013-10-15 22:52:00,63.0,62.0,-100.00,West,262,2.0,8.0,98,0.00,,,0.06,0.000000,,2013-10-16 02:52:00,
2013-10-15 23:02:00,63.0,62.0,-100.00,West,262,2.0,8.0,98,0.00,,,0.06,0.000000,,2013-10-16 03:02:00,
2013-10-15 23:45:00,62.0,61.0,-100.00,WSW,247,1.0,8.0,98,0.00,,,0.06,0.000000,,2013-10-16 03:45:00,
2013-10-15 23:55:00,62.0,61.0,-100.00,WSW,247,1.0,8.0,98,0.00,,,0.06,0.000000,,2013-10-16 03:55:00,